Terminal Aerodrome Forecast
Issued by NWS

Home | Current Version | Previous Version | Text Only | Print | Product List | Glossary On
Versions: 1 2 3 4 5 6 7 8 9 10 11 12 13
000
FTUS45 KSLC 281120
TAFBCE
TAF
KBCE 281120Z 2812/2912 28007KT P6SM FEW080 SCT150
     FM281500 14011KT P6SM SCT080 BKN150
     FM281900 14011G16KT P6SM VCSH SCT050 BKN090
     FM290200 15006KT P6SM VCSH SCT050 BKN080=

USA.gov is the U.S. government's official web portal to all federal, state and local government web resources and services.